Darstellungsparameter: Aktuell verwendete Einstellungen:
Skalierung der Graphiken ... ?
xyx+y,   Skalierungsfaktor:      Skalierung: Modus: x, Faktor: 1
Darstellungszeitraum ... ?
Vom - - bis: - -   Zeitraum: 23.09.2010 - 29.09.2010
Min/Max/Avg-Anzeige ... ?
Zeige MMA aktuell
Zeige MMA Monat
Zeige MMA alles
Zeige --A aktuell
Zeige --A Monat
Zeige --A alles
Keine MMA-Anzeige
MMA:
Average (ber die Originaldaten)
MMA-Basis: 23.09.2010 - 29.09.2010
Quicknavigation für Darstellung... ?
Tage:      1T, 2T, 3T, 5T -1T -2T -3T -5T +1T +2T +3T +5T
Wochen: 1W, 2W, 3W -1W -2W -3W +1W +2W +3W
Monate: 1M, 3M, 6M -1M -3M -6M +1M +3M +6M
Jahre:    1J, 3J, 5J, 10J -1J -3J -5J -10J +1J +3J +5J +10J
Nutze für die Darstellung ... ?
Originaldaten oder Mittelwerte auf ...
Stundenbasis Tagesbasis Wochenbasis
Monatsbasis Jahresbasis      Datenbasis: Original-Daten
Darstellen als:
Statistik (Auto) Statistik J:M      Darstellung:
Zur Graphik,    zurück zur Übersicht aller Sensoren.
 
Tabellarische Datenbersicht: ?
 
Sensor: Nr:Datum:Temp:Abs-Feuchte:Windchill:Wind:
Aussen-T/F 1 23-09-2010 00:08:02 14.4 C 8.53 g/m*3 14.4 C 0 km/h
2 23-09-2010 00:20:02 14.2 C 8.67 g/m*3 14.2 C 0 km/h
3 23-09-2010 00:32:02 14 C 8.56 g/m*3 14 C 0 km/h
4 23-09-2010 00:44:02 13.8 C 8.7 g/m*3 13.8 C 0 km/h
5 23-09-2010 00:56:02 13.7 C 8.76 g/m*3 13.7 C 0 km/h
6 23-09-2010 01:08:02 13.5 C 8.77 g/m*3 13.5 C 0 km/h
7 23-09-2010 01:20:02 13.4 C 8.72 g/m*3 13.4 C 0 km/h
8 23-09-2010 01:32:02 13.2 C 8.73 g/m*3 13.2 C 0 km/h
9 23-09-2010 01:44:02 13.1 C 8.67 g/m*3 13.1 C 0 km/h
10 23-09-2010 01:56:03 12.9 C 8.68 g/m*3 12.9 C 0 km/h
11 23-09-2010 02:08:03 12.8 C 8.74 g/m*3 12.8 C 0 km/h
12 23-09-2010 02:20:03 12.6 C 8.74 g/m*3 12.6 C 0 km/h
13 23-09-2010 02:32:03 12.4 C 8.74 g/m*3 12.4 C 0 km/h
14 23-09-2010 02:44:03 12.3 C 8.69 g/m*3 12.3 C 0 km/h
15 23-09-2010 02:56:03 12.1 C 8.58 g/m*3 12.1 C 0 km/h
16 23-09-2010 03:08:03 12 C 8.53 g/m*3 12 C 0 km/h
17 23-09-2010 03:20:03 11.8 C 8.53 g/m*3 11.8 C 0 km/h
18 23-09-2010 03:32:03 11.8 C 8.53 g/m*3 11.8 C 0 km/h
19 23-09-2010 03:44:03 11.8 C 8.63 g/m*3 11.8 C 0 km/h
20 23-09-2010 03:56:03 11.6 C 8.63 g/m*3 11.6 C 0 km/h
21 23-09-2010 04:08:03 11.4 C 8.52 g/m*3 11.4 C 0 km/h
22 23-09-2010 04:20:03 11.2 C 8.41 g/m*3 11.2 C 0 km/h
23 23-09-2010 04:32:03 11.2 C 8.41 g/m*3 11.2 C 0 km/h
24 23-09-2010 04:44:03 11 C 8.31 g/m*3 11 C 0 km/h
25 23-09-2010 04:56:03 11 C 8.31 g/m*3 11 C 0 km/h
Sensor: Nr:Datum:Temp:Abs-Feuchte:Windchill:Wind:
Aussen-T/F 26 23-09-2010 05:08:03 10.9 C 8.36 g/m*3 10.9 C 0 km/h
27 23-09-2010 05:20:03 10.7 C 8.25 g/m*3 10.7 C 0 km/h
28 23-09-2010 05:32:03 10.6 C 8.2 g/m*3 10.6 C 0 km/h
29 23-09-2010 05:44:03 10.5 C 8.15 g/m*3 10.5 C 0 km/h
30 23-09-2010 05:56:03 10.5 C 8.15 g/m*3 10.5 C 0 km/h
31 23-09-2010 06:08:03 10.4 C 8.1 g/m*3 10.4 C 0 km/h
32 23-09-2010 06:20:04 10.5 C 8.24 g/m*3 10.5 C 0 km/h
33 23-09-2010 06:32:04 10.6 C 8.3 g/m*3 10.6 C 0 km/h
34 23-09-2010 06:44:04 10.4 C 8.19 g/m*3 10.4 C 0 km/h
35 23-09-2010 06:56:04 10.4 C 8.19 g/m*3 10.4 C 0 km/h
36 23-09-2010 07:08:02 10.5 C 8.24 g/m*3 10.5 C 0 km/h
37 23-09-2010 07:20:01 10.4 C 8.19 g/m*3 10.4 C 0 km/h
38 23-09-2010 07:32:02 10.5 C 8.24 g/m*3 10.5 C 0 km/h
39 23-09-2010 07:44:02 10.6 C 8.3 g/m*3 10.6 C 0 km/h
40 23-09-2010 07:56:02 10.6 C 8.3 g/m*3 10.6 C 0 km/h
41 23-09-2010 08:08:02 10.6 C 8.3 g/m*3 10.6 C 0 km/h
42 23-09-2010 08:20:01 10.7 C 8.35 g/m*3 10.7 C 0 km/h
43 23-09-2010 08:32:02 10.8 C 8.4 g/m*3 10.8 C 0 km/h
44 23-09-2010 08:44:02 11 C 8.51 g/m*3 11 C 0 km/h
45 23-09-2010 08:56:02 11.3 C 8.57 g/m*3 11.3 C 0 km/h
46 23-09-2010 09:08:01 11.4 C 8.52 g/m*3 11.4 C 0 km/h
47 23-09-2010 09:20:01 11.4 C 8.52 g/m*3 11.4 C 0 km/h
48 23-09-2010 09:32:02 11.4 C 8.52 g/m*3 11.4 C 0 km/h
49 23-09-2010 09:44:02 11.7 C 8.79 g/m*3 11.7 C 0 km/h
50 23-09-2010 09:56:02 12.3 C 8.9 g/m*3 12.3 C 0 km/h
Sensor: Nr:Datum:Temp:Abs-Feuchte:Windchill:Wind:
Aussen-T/F 51 23-09-2010 10:08:02 12.4 C 8.96 g/m*3 12.4 C 0 km/h
52 23-09-2010 10:20:02 12.5 C 9.02 g/m*3 12.5 C 0 km/h
53 23-09-2010 10:32:02 12.9 C 9.24 g/m*3 12.9 C 0 km/h
54 23-09-2010 10:44:02 13.3 C 9.36 g/m*3 13.3 C 0 km/h
55 23-09-2010 10:56:02 13.8 C 9.65 g/m*3 13.8 C 0 km/h
56 23-09-2010 11:08:02 14.1 C 9.71 g/m*3 14.1 C 0 km/h
57 23-09-2010 11:20:02 15 C 10 g/m*3 15 C 0 km/h
58 23-09-2010 11:32:02 15.8 C 10.23 g/m*3 15.8 C 0 km/h
59 23-09-2010 11:44:02 16.3 C 10.13 g/m*3 16.3 C 0 km/h
60 23-09-2010 11:56:02 17 C 10.27 g/m*3 17 C 0 km/h
61 23-09-2010 12:08:02 17.5 C 10.44 g/m*3 17.5 C 0 km/h
62 23-09-2010 12:20:02 18 C 10.44 g/m*3 18 C 0 km/h
63 23-09-2010 12:32:02 18.7 C 10.73 g/m*3 18.7 C 0 km/h
64 23-09-2010 12:44:02 19.2 C 10.55 g/m*3 19.2 C 0 km/h
65 23-09-2010 12:56:02 19.9 C 10.82 g/m*3 19.9 C 0 km/h
66 23-09-2010 13:08:02 20.5 C 11.03 g/m*3 20.5 C 0 km/h
67 23-09-2010 13:20:02 21.4 C 11.06 g/m*3 21.4 C 0 km/h
68 23-09-2010 13:32:01 22.3 C 11.26 g/m*3 22.3 C 0 km/h
69 23-09-2010 13:44:01 23.3 C 10.66 g/m*3 23.3 C 0 km/h
70 23-09-2010 13:56:02 24 C 9.14 g/m*3 24 C 0 km/h
71 23-09-2010 14:08:01 24.5 C 9.62 g/m*3 24.5 C 0 km/h
72 23-09-2010 14:20:02 23.8 C 10.11 g/m*3 23.8 C 0 km/h
73 23-09-2010 14:32:02 23.7 C 10.48 g/m*3 23.7 C 0 km/h
74 23-09-2010 14:44:02 23.8 C 10.54 g/m*3 23.8 C 0 km/h
75 23-09-2010 14:56:02 24.5 C 10.3 g/m*3 24.5 C 0 km/h
Sensor: Nr:Datum:Temp:Abs-Feuchte:Windchill:Wind:
Aussen-T/F 76 23-09-2010 15:08:02 25.2 C 8.85 g/m*3 25.2 C 0 km/h
77 23-09-2010 15:20:02 25.2 C 9.78 g/m*3 25.2 C 0 km/h
78 23-09-2010 15:32:02 24.8 C 9.33 g/m*3 24.8 C 0 km/h
79 23-09-2010 15:44:03 25.1 C 9.26 g/m*3 25.1 C 0 km/h
80 23-09-2010 15:56:01 24.9 C 9.61 g/m*3 24.9 C 0 km/h
81 23-09-2010 16:08:02 25.1 C 10.19 g/m*3 25.1 C 0 km/h
82 23-09-2010 16:20:01 26 C 9.74 g/m*3 26 C 0 km/h
83 23-09-2010 16:32:01 25.6 C 9.05 g/m*3 25.6 C 0 km/h
84 23-09-2010 16:44:01 24.9 C 10.07 g/m*3 24.9 C 0 km/h
85 23-09-2010 16:56:01 24.1 C 10.28 g/m*3 24.1 C 0 km/h
86 23-09-2010 17:08:01 23.7 C 10.91 g/m*3 23.7 C 0 km/h
87 23-09-2010 17:20:02 23.4 C 10.72 g/m*3 23.4 C 0 km/h
88 23-09-2010 17:32:01 23.2 C 10.81 g/m*3 23.2 C 0 km/h
89 23-09-2010 17:44:01 23.3 C 10.45 g/m*3 23.3 C 0 km/h
90 23-09-2010 17:56:02 23.8 C 10.76 g/m*3 23.8 C 0 km/h
91 23-09-2010 18:08:01 23.3 C 10.45 g/m*3 23.3 C 0 km/h
92 23-09-2010 18:20:02 22.6 C 10.25 g/m*3 22.6 C 0 km/h
93 23-09-2010 18:32:01 21.7 C 10.68 g/m*3 21.7 C 0 km/h
94 23-09-2010 18:44:01 21.6 C 10.81 g/m*3 21.6 C 0 km/h
95 23-09-2010 18:56:02 21.4 C 10.87 g/m*3 21.4 C 0 km/h
96 23-09-2010 19:08:02 20.9 C 10.93 g/m*3 20.9 C 0 km/h
97 23-09-2010 19:20:02 20.4 C 10.97 g/m*3 20.4 C 0 km/h
98 23-09-2010 19:32:02 19.8 C 11.1 g/m*3 19.8 C 0 km/h
99 23-09-2010 19:44:02 19.4 C 11.18 g/m*3 19.4 C 0 km/h
100 23-09-2010 19:56:02 19 C 11.08 g/m*3 19 C 0 km/h
Sensor: Nr:Datum:Temp:Abs-Feuchte:Windchill:Wind:
Aussen-T/F 101 23-09-2010 20:08:01 18.8 C 11.43 g/m*3 18.8 C 0 km/h
102 23-09-2010 20:20:02 18.6 C 11.3 g/m*3 18.6 C 0 km/h
103 23-09-2010 20:32:02 18.6 C 11.3 g/m*3 18.6 C 0 km/h
104 23-09-2010 20:44:02 18.4 C 11.32 g/m*3 18.4 C 0 km/h
105 23-09-2010 20:56:02 18.1 C 11.12 g/m*3 18.1 C 0 km/h
106 23-09-2010 21:08:02 18.4 C 11.48 g/m*3 18.4 C 0 km/h
107 23-09-2010 21:20:01 18.3 C 11.41 g/m*3 18.3 C 0 km/h
108 23-09-2010 21:32:02 18.4 C 11.64 g/m*3 18.4 C 0 km/h
109 23-09-2010 21:44:02 18.7 C 11.53 g/m*3 18.7 C 0 km/h
110 23-09-2010 21:57:02 18.7 C 11.37 g/m*3 18.7 C 0 km/h
111 23-09-2010 22:09:02 18.5 C 11.23 g/m*3 18.5 C 0 km/h
112 23-09-2010 22:21:02 18.5 C 11.39 g/m*3 18.5 C 0 km/h
113 23-09-2010 22:33:02 17.9 C 11.6 g/m*3 17.9 C 0 km/h
114 23-09-2010 22:45:02 17.7 C 12.52 g/m*3 17.7 C 0 km/h
115 23-09-2010 22:57:02 17.1 C 12.23 g/m*3 17.1 C 0 km/h
116 23-09-2010 23:09:02 16.9 C 12.37 g/m*3 16.9 C 0 km/h
117 23-09-2010 23:21:02 16.5 C 12.22 g/m*3 16.5 C 0 km/h
118 23-09-2010 23:33:02 16.4 C 12.28 g/m*3 16.4 C 0 km/h
119 23-09-2010 23:45:02 16.2 C 12.14 g/m*3 16.2 C 0 km/h
120 23-09-2010 23:57:02 16.2 C 12.27 g/m*3 16.2 C 0 km/h
121 24-09-2010 00:09:02 16 C 12.13 g/m*3 16 C 0 km/h
122 24-09-2010 00:21:02 15.9 C 12.32 g/m*3 15.9 C 0 km/h
123 24-09-2010 00:33:02 15.6 C 12.1 g/m*3 15.6 C 0 km/h
124 24-09-2010 00:45:02 15.5 C 12.16 g/m*3 15.5 C 0 km/h
125 24-09-2010 00:57:02 15.5 C 12.16 g/m*3 15.5 C 0 km/h
Sensor: Nr:Datum:Temp:Abs-Feuchte:Windchill:Wind:
Aussen-T/F 126 24-09-2010 01:09:02 15.5 C 12.16 g/m*3 15.5 C 0 km/h
127 24-09-2010 01:21:02 15.5 C 12.29 g/m*3 15.5 C 0 km/h
128 24-09-2010 01:33:02 15.6 C 12.37 g/m*3 15.6 C 0 km/h
129 24-09-2010 01:45:02 15.6 C 12.37 g/m*3 15.6 C 0 km/h
130 24-09-2010 01:57:03 15.5 C 12.29 g/m*3 15.5 C 0 km/h
131 24-09-2010 02:09:03 15.5 C 12.29 g/m*3 15.5 C 0 km/h
132 24-09-2010 02:21:03 15.5 C 12.29 g/m*3 15.5 C 0 km/h
133 24-09-2010 02:33:03 15.4 C 12.22 g/m*3 15.4 C 0 km/h
134 24-09-2010 02:45:03 15.3 C 12.01 g/m*3 15.3 C 0 km/h
135 24-09-2010 02:57:03 15.2 C 11.94 g/m*3 15.2 C 0 km/h
136 24-09-2010 03:09:03 15.1 C 11.87 g/m*3 15.1 C 0 km/h
137 24-09-2010 03:21:03 14.9 C 11.85 g/m*3 14.9 C 0 km/h
138 24-09-2010 03:33:03 14.9 C 11.85 g/m*3 14.9 C 0 km/h
139 24-09-2010 03:45:03 14.9 C 11.98 g/m*3 14.9 C 0 km/h
140 24-09-2010 03:57:03 14.9 C 11.98 g/m*3 14.9 C 0 km/h
141 24-09-2010 04:09:03 14.8 C 11.91 g/m*3 14.8 C 0 km/h
142 24-09-2010 04:21:03 14.8 C 11.91 g/m*3 14.8 C 0 km/h
143 24-09-2010 04:33:03 14.8 C 11.91 g/m*3 14.8 C 0 km/h
144 24-09-2010 04:45:03 14.8 C 11.91 g/m*3 14.8 C 0 km/h
145 24-09-2010 04:57:03 14.7 C 11.83 g/m*3 14.7 C 0 km/h
146 24-09-2010 05:09:03 14.5 C 11.69 g/m*3 14.5 C 0 km/h
147 24-09-2010 05:21:03 14.5 C 11.69 g/m*3 14.5 C 0 km/h
148 24-09-2010 05:33:03 14.5 C 11.69 g/m*3 14.5 C 0 km/h
149 24-09-2010 05:45:03 14.6 C 11.76 g/m*3 14.6 C 0 km/h
150 24-09-2010 05:57:03 14.6 C 11.76 g/m*3 14.6 C 0 km/h
Sensor: Nr:Datum:Temp:Abs-Feuchte:Windchill:Wind:
Aussen-T/F 151 24-09-2010 06:09:03 14.7 C 11.83 g/m*3 14.7 C 0 km/h
152 24-09-2010 06:21:04 14.7 C 11.83 g/m*3 14.7 C 0 km/h
153 24-09-2010 06:33:04 14.7 C 11.83 g/m*3 14.7 C 0 km/h
154 24-09-2010 06:45:04 14.7 C 11.83 g/m*3 14.7 C 0 km/h
155 24-09-2010 06:57:04 14.7 C 11.83 g/m*3 14.7 C 0 km/h
156 24-09-2010 07:09:04 14.5 C 11.69 g/m*3 14.5 C 0 km/h
157 24-09-2010 07:21:04 14.4 C 11.62 g/m*3 14.4 C 0 km/h
158 24-09-2010 07:33:02 14.3 C 11.55 g/m*3 14.3 C 0 km/h
159 24-09-2010 07:45:02 14.4 C 11.62 g/m*3 14.4 C 0 km/h
160 24-09-2010 07:57:02 14.4 C 11.62 g/m*3 14.4 C 0 km/h
161 24-09-2010 08:09:02 14.4 C 11.62 g/m*3 14.4 C 0 km/h
162 24-09-2010 08:21:01 14.3 C 11.55 g/m*3 14.3 C 0 km/h
163 24-09-2010 08:33:02 14.6 C 11.89 g/m*3 14.6 C 0 km/h
164 24-09-2010 08:45:02 14.8 C 12.03 g/m*3 14.8 C 0 km/h
165 24-09-2010 08:57:02 14.8 C 12.03 g/m*3 14.8 C 0 km/h
166 24-09-2010 09:09:01 14.8 C 12.03 g/m*3 14.8 C 0 km/h
167 24-09-2010 09:21:02 14.8 C 12.03 g/m*3 14.8 C 0 km/h
168 24-09-2010 09:33:01 14.9 C 12.11 g/m*3 14.9 C 0 km/h
169 24-09-2010 09:45:02 14.9 C 12.11 g/m*3 14.9 C 0 km/h
170 24-09-2010 09:57:02 15 C 12.05 g/m*3 15 C 0 km/h
171 24-09-2010 10:09:02 15 C 12.05 g/m*3 15 C 0 km/h
172 24-09-2010 10:21:02 14.9 C 12.11 g/m*3 14.9 C 0 km/h
173 24-09-2010 10:33:02 15 C 12.05 g/m*3 15 C 0 km/h
174 24-09-2010 10:45:01 15 C 12.05 g/m*3 15 C 0 km/h
175 24-09-2010 10:57:01 15 C 12.05 g/m*3 15 C 0 km/h
Sensor: Nr:Datum:Temp:Abs-Feuchte:Windchill:Wind:
Aussen-T/F 176 24-09-2010 11:09:02 15.1 C 12.13 g/m*3 15.1 C 0 km/h
177 24-09-2010 11:21:01 15.1 C 12.13 g/m*3 15.1 C 0 km/h
178 24-09-2010 11:33:01 15.4 C 12.35 g/m*3 15.4 C 0 km/h
179 24-09-2010 11:45:02 15.4 C 12.35 g/m*3 15.4 C 0 km/h
180 24-09-2010 11:57:02 15.1 C 12.13 g/m*3 15.1 C 0 km/h
181 24-09-2010 12:09:02 15.1 C 12.13 g/m*3 15.1 C 0 km/h
182 24-09-2010 12:21:02 15.1 C 12.13 g/m*3 15.1 C 0 km/h
183 24-09-2010 12:33:03 15.4 C 12.48 g/m*3 15.4 C 0 km/h
184 24-09-2010 12:45:02 15.1 C 12.13 g/m*3 15.1 C 0 km/h
185 24-09-2010 12:57:03 15 C 12.05 g/m*3 15 C 0 km/h
186 24-09-2010 13:09:02 14.8 C 11.91 g/m*3 14.8 C 0 km/h
187 24-09-2010 13:21:02 14.6 C 11.76 g/m*3 14.6 C 0 km/h
188 24-09-2010 13:33:02 14.5 C 11.69 g/m*3 14.5 C 0 km/h
189 24-09-2010 13:45:02 14.5 C 11.69 g/m*3 14.5 C 0 km/h
190 24-09-2010 13:57:02 14.4 C 11.62 g/m*3 14.4 C 0 km/h
191 24-09-2010 14:09:03 14.1 C 11.41 g/m*3 14.1 C 0 km/h
192 24-09-2010 14:21:02 13.8 C 11.2 g/m*3 13.8 C 0 km/h
193 24-09-2010 14:33:03 13.5 C 10.99 g/m*3 13.5 C 0 km/h
194 24-09-2010 14:45:02 13.2 C 10.79 g/m*3 13.2 C 0 km/h
195 24-09-2010 14:57:02 13.1 C 10.73 g/m*3 13.1 C 0 km/h
196 24-09-2010 15:09:02 12.9 C 10.71 g/m*3 12.9 C 0 km/h
197 24-09-2010 15:21:03 13.1 C 10.73 g/m*3 13.1 C 0 km/h
198 24-09-2010 15:33:02 13 C 10.77 g/m*3 13 C 0 km/h
199 24-09-2010 15:45:03 13.2 C 10.91 g/m*3 13.2 C 0 km/h
200 24-09-2010 15:57:03 13.2 C 10.91 g/m*3 13.2 C 0 km/h
Sensor: Nr:Datum:Temp:Abs-Feuchte:Windchill:Wind:
Aussen-T/F 201 24-09-2010 16:09:02 13.3 C 10.98 g/m*3 13.3 C 0 km/h
202 24-09-2010 16:21:02 13.7 C 11.25 g/m*3 13.7 C 0 km/h
203 24-09-2010 16:33:02 14 C 11.46 g/m*3 14 C 0 km/h
204 24-09-2010 16:45:02 14.1 C 11.53 g/m*3 14.1 C 0 km/h
205 24-09-2010 16:57:02 13.9 C 11.39 g/m*3 13.9 C 0 km/h
206 24-09-2010 17:09:02 13.9 C 11.39 g/m*3 13.9 C 0 km/h
207 24-09-2010 17:21:02 13.9 C 11.39 g/m*3 13.9 C 0 km/h
208 24-09-2010 17:33:02 13.4 C 10.93 g/m*3 13.4 C 0 km/h
209 24-09-2010 17:45:02 13.2 C 10.79 g/m*3 13.2 C 0 km/h
210 24-09-2010 17:57:02 13 C 10.66 g/m*3 13 C 0 km/h
211 24-09-2010 18:09:01 13.2 C 10.79 g/m*3 13.2 C 0 km/h
212 24-09-2010 18:21:01 13.3 C 10.86 g/m*3 13.3 C 0 km/h
213 24-09-2010 18:33:02 13.3 C 10.86 g/m*3 13.3 C 0 km/h
214 24-09-2010 18:45:02 13.3 C 10.86 g/m*3 13.3 C 0 km/h
215 24-09-2010 18:57:02 13.2 C 10.79 g/m*3 13.2 C 0 km/h
216 24-09-2010 19:09:02 13.1 C 10.73 g/m*3 13.1 C 0 km/h
217 24-09-2010 19:21:01 12.9 C 10.71 g/m*3 12.9 C 0 km/h
218 24-09-2010 19:33:02 12.8 C 10.64 g/m*3 12.8 C 0 km/h
219 24-09-2010 19:45:02 12.7 C 10.58 g/m*3 12.7 C 0 km/h
220 24-09-2010 19:57:02 12.7 C 10.58 g/m*3 12.7 C 0 km/h
221 24-09-2010 20:09:02 12.7 C 10.58 g/m*3 12.7 C 0 km/h
222 24-09-2010 20:21:01 12.7 C 10.58 g/m*3 12.7 C 0 km/h
223 24-09-2010 20:33:02 12.7 C 10.58 g/m*3 12.7 C 0 km/h
224 24-09-2010 20:45:01 12.7 C 10.58 g/m*3 12.7 C 0 km/h
225 24-09-2010 20:57:01 12.7 C 10.58 g/m*3 12.7 C 0 km/h
Sensor: Nr:Datum:Temp:Abs-Feuchte:Windchill:Wind:
Aussen-T/F 226 24-09-2010 21:09:02 12.8 C 10.64 g/m*3 12.8 C 0 km/h
227 24-09-2010 21:21:02 12.8 C 10.64 g/m*3 12.8 C 0 km/h
228 24-09-2010 21:33:02 12.9 C 10.71 g/m*3 12.9 C 0 km/h
229 24-09-2010 21:45:02 12.8 C 10.64 g/m*3 12.8 C 0 km/h
230 24-09-2010 21:57:02 12.8 C 10.64 g/m*3 12.8 C 0 km/h
231 24-09-2010 22:09:01 12.8 C 10.64 g/m*3 12.8 C 0 km/h
232 24-09-2010 22:21:02 12.8 C 10.64 g/m*3 12.8 C 0 km/h
233 24-09-2010 22:33:02 12.7 C 10.58 g/m*3 12.7 C 0 km/h
234 24-09-2010 22:46:04 12.6 C 10.51 g/m*3 12.6 C 0 km/h
235 24-09-2010 22:58:04 12.6 C 10.51 g/m*3 12.6 C 0 km/h
236 24-09-2010 23:10:04 12.5 C 10.44 g/m*3 12.5 C 0 km/h
237 24-09-2010 23:22:04 12.4 C 10.38 g/m*3 12.4 C 0 km/h
238 24-09-2010 23:34:04 12.4 C 10.38 g/m*3 12.4 C 0 km/h
239 24-09-2010 23:46:04 12.3 C 10.32 g/m*3 12.3 C 0 km/h
240 24-09-2010 23:58:04 12.4 C 10.38 g/m*3 12.4 C 0 km/h
241 25-09-2010 00:10:04 12.4 C 10.38 g/m*3 12.4 C 0 km/h
242 25-09-2010 00:22:04 12.5 C 10.44 g/m*3 12.5 C 0 km/h
243 25-09-2010 00:34:04 12.5 C 10.44 g/m*3 12.5 C 0 km/h
244 25-09-2010 00:46:04 12.5 C 10.44 g/m*3 12.5 C 0 km/h
245 25-09-2010 00:58:05 12.5 C 10.44 g/m*3 12.5 C 0 km/h
246 25-09-2010 01:10:05 12.5 C 10.44 g/m*3 12.5 C 0 km/h
247 25-09-2010 01:22:05 12.5 C 10.44 g/m*3 12.5 C 0 km/h
248 25-09-2010 01:34:05 12.5 C 10.44 g/m*3 12.5 C 0 km/h
249 25-09-2010 01:46:05 12.5 C 10.44 g/m*3 12.5 C 0 km/h
250 25-09-2010 01:58:05 12.6 C 10.51 g/m*3 12.6 C 0 km/h
Sensor: Nr:Datum:Temp:Abs-Feuchte:Windchill:Wind:
Aussen-T/F 251 25-09-2010 02:10:05 12.6 C 10.51 g/m*3 12.6 C 0 km/h
252 25-09-2010 02:22:05 12.6 C 10.51 g/m*3 12.6 C 0 km/h
253 25-09-2010 02:34:05 12.6 C 10.51 g/m*3 12.6 C 0 km/h
254 25-09-2010 02:46:05 12.6 C 10.51 g/m*3 12.6 C 0 km/h
255 25-09-2010 02:58:05 12.6 C 10.51 g/m*3 12.6 C 0 km/h
256 25-09-2010 03:10:05 12.7 C 10.58 g/m*3 12.7 C 0 km/h
257 25-09-2010 03:22:05 12.6 C 10.51 g/m*3 12.6 C 0 km/h
258 25-09-2010 03:34:05 12.6 C 10.51 g/m*3 12.6 C 0 km/h
259 25-09-2010 03:46:05 12.6 C 10.51 g/m*3 12.6 C 0 km/h
260 25-09-2010 03:58:05 12.6 C 10.51 g/m*3 12.6 C 0 km/h
261 25-09-2010 04:10:05 12.6 C 10.51 g/m*3 12.6 C 0 km/h
262 25-09-2010 04:22:05 12.5 C 10.44 g/m*3 12.5 C 0 km/h
263 25-09-2010 04:34:05 12.6 C 10.51 g/m*3 12.6 C 0 km/h
264 25-09-2010 04:46:05 12.5 C 10.44 g/m*3 12.5 C 0 km/h
265 25-09-2010 04:58:06 12.5 C 10.44 g/m*3 12.5 C 0 km/h
266 25-09-2010 05:10:06 12.5 C 10.44 g/m*3 12.5 C 0 km/h
267 25-09-2010 05:22:06 12.4 C 10.38 g/m*3 12.4 C 0 km/h
268 25-09-2010 05:34:06 12.4 C 10.38 g/m*3 12.4 C 0 km/h
269 25-09-2010 05:46:06 12.3 C 10.32 g/m*3 12.3 C 0 km/h
270 25-09-2010 05:58:06 12.3 C 10.21 g/m*3 12.3 C 0 km/h
271 25-09-2010 06:10:06 12.1 C 10.08 g/m*3 12.1 C 0 km/h
272 25-09-2010 06:22:06 12.1 C 10.08 g/m*3 12.1 C 0 km/h
273 25-09-2010 06:34:06 12.1 C 10.08 g/m*3 12.1 C 0 km/h
274 25-09-2010 06:46:06 12 C 10.02 g/m*3 12 C 0 km/h
275 25-09-2010 06:58:06 12 C 10.02 g/m*3 12 C 0 km/h
Sensor: Nr:Datum:Temp:Abs-Feuchte:Windchill:Wind:
Aussen-T/F 276 25-09-2010 07:10:06 12 C 10.02 g/m*3 12 C 0 km/h
277 25-09-2010 07:22:06 11.9 C 9.96 g/m*3 11.9 C 0 km/h
278 25-09-2010 07:34:06 11.9 C 9.96 g/m*3 11.9 C 0 km/h
279 25-09-2010 07:46:02 11.8 C 9.89 g/m*3 11.8 C 0 km/h
280 25-09-2010 07:58:02 11.8 C 9.89 g/m*3 11.8 C 0 km/h
281 25-09-2010 08:10:02 11.7 C 9.83 g/m*3 11.7 C 0 km/h
282 25-09-2010 08:22:02 11.6 C 9.77 g/m*3 11.6 C 0 km/h
283 25-09-2010 08:34:02 11.2 C 9.43 g/m*3 11.2 C 0 km/h
284 25-09-2010 08:46:02 11 C 9.31 g/m*3 11 C 0 km/h
285 25-09-2010 08:58:02 10.8 C 9.19 g/m*3 10.8 C 0 km/h
286 25-09-2010 09:10:01 10.6 C 9.08 g/m*3 10.6 C 0 km/h
287 25-09-2010 09:22:02 10.4 C 8.96 g/m*3 10.4 C 0 km/h
288 25-09-2010 09:34:02 10.5 C 8.92 g/m*3 10.5 C 0 km/h
289 25-09-2010 09:46:02 10.5 C 8.83 g/m*3 10.5 C 0 km/h
290 25-09-2010 09:58:02 10.4 C 8.29 g/m*3 10.4 C 0 km/h
291 25-09-2010 10:10:03 10.5 C 8.15 g/m*3 10.5 C 0 km/h
292 25-09-2010 10:22:02 10.8 C 8.2 g/m*3 10.8 C 0 km/h
293 25-09-2010 10:34:02 11.1 C 8.36 g/m*3 11.1 C 0 km/h
294 25-09-2010 10:46:01 11.3 C 8.36 g/m*3 11.3 C 0 km/h
295 25-09-2010 10:58:01 11.5 C 8.16 g/m*3 11.5 C 0 km/h
296 25-09-2010 11:10:02 11.6 C 7.8 g/m*3 11.6 C 0 km/h
297 25-09-2010 11:22:01 12.1 C 7.72 g/m*3 12.1 C 0 km/h
298 25-09-2010 11:34:02 12.3 C 7.38 g/m*3 12.3 C 0 km/h
299 25-09-2010 11:46:01 12.5 C 7.26 g/m*3 12.5 C 0 km/h
300 25-09-2010 11:58:01 13 C 7.03 g/m*3 13 C 0 km/h
Sensor: Nr:Datum:Temp:Abs-Feuchte:Windchill:Wind:
Aussen-T/F 301 25-09-2010 12:10:02 12.8 C 6.83 g/m*3 12.8 C 0 km/h
302 25-09-2010 12:22:01 12.8 C 7.06 g/m*3 12.8 C 0 km/h
303 25-09-2010 12:34:02 12.4 C 6.88 g/m*3 12.4 C 0 km/h
304 25-09-2010 12:46:02 11.8 C 6.84 g/m*3 11.8 C 0 km/h
305 25-09-2010 12:58:02 12.4 C 6.88 g/m*3 12.4 C 0 km/h
306 25-09-2010 13:10:02 12.7 C 6.68 g/m*3 12.7 C 0 km/h
307 25-09-2010 13:22:01 13 C 6.35 g/m*3 13 C 0 km/h
308 25-09-2010 13:34:02 13.8 C 6.43 g/m*3 13.8 C 0 km/h
309 25-09-2010 13:46:01 13.5 C 5.38 g/m*3 13.5 C 0 km/h
310 25-09-2010 13:58:01 13.3 C 5.31 g/m*3 13.3 C 0 km/h
311 25-09-2010 14:10:02 13.7 C 5.45 g/m*3 13.7 C 0 km/h
312 25-09-2010 14:22:01 13.5 C 5.5 g/m*3 13.5 C 0 km/h
313 25-09-2010 14:34:02 13.8 C 5.36 g/m*3 13.8 C 0 km/h
314 25-09-2010 14:46:01 14.4 C 5.32 g/m*3 14.4 C 0 km/h
315 25-09-2010 14:58:01 15.8 C 5.12 g/m*3 15.8 C 0 km/h
316 25-09-2010 15:10:02 14.8 C 4.43 g/m*3 14.8 C 0 km/h
317 25-09-2010 15:22:02 14.5 C 4.6 g/m*3 14.5 C 0 km/h
318 25-09-2010 15:34:01 15.7 C 4.68 g/m*3 15.7 C 0 km/h
319 25-09-2010 15:46:02 15.5 C 4.63 g/m*3 15.5 C 0 km/h
320 25-09-2010 15:58:02 14.7 C 5.04 g/m*3 14.7 C 0 km/h
321 25-09-2010 16:10:01 14.2 C 4.88 g/m*3 14.2 C 0 km/h
322 25-09-2010 16:22:02 14.4 C 5.07 g/m*3 14.4 C 0 km/h
323 25-09-2010 16:34:01 14.7 C 5.16 g/m*3 14.7 C 0 km/h
324 25-09-2010 16:46:02 15.6 C 4.79 g/m*3 15.6 C 0 km/h
325 25-09-2010 16:58:02 14.7 C 4.91 g/m*3 14.7 C 0 km/h
Sensor: Nr:Datum:Temp:Abs-Feuchte:Windchill:Wind:
Aussen-T/F 326 25-09-2010 17:10:02 14.3 C 4.91 g/m*3 14.3 C 0 km/h
327 25-09-2010 17:22:02 14.8 C 5.32 g/m*3 14.8 C 0 km/h
328 25-09-2010 17:34:03 15.6 C 5.19 g/m*3 15.6 C 0 km/h
329 25-09-2010 17:46:02 16.8 C 5.15 g/m*3 16.8 C 0 km/h
330 25-09-2010 17:58:02 16.5 C 4.77 g/m*3 16.5 C 0 km/h
331 25-09-2010 18:10:01 15.4 C 4.47 g/m*3 15.4 C 0 km/h
332 25-09-2010 18:22:01 14.3 C 4.67 g/m*3 14.3 C 0 km/h
333 25-09-2010 18:34:02 13.9 C 4.92 g/m*3 13.9 C 0 km/h
334 25-09-2010 18:46:02 13.8 C 5.36 g/m*3 13.8 C 0 km/h
335 25-09-2010 18:58:02 13.7 C 5.8 g/m*3 13.7 C 0 km/h
336 25-09-2010 19:10:02 13.5 C 5.5 g/m*3 13.5 C 0 km/h
337 25-09-2010 19:22:02 13.1 C 5.59 g/m*3 13.1 C 0 km/h
338 25-09-2010 19:34:02 13 C 5.67 g/m*3 13 C 0 km/h
339 25-09-2010 19:46:02 12.7 C 5.9 g/m*3 12.7 C 0 km/h
340 25-09-2010 19:58:02 12.6 C 6.08 g/m*3 12.6 C 0 km/h
341 25-09-2010 20:10:02 12.5 C 5.72 g/m*3 12.5 C 0 km/h
342 25-09-2010 20:22:02 12.2 C 5.61 g/m*3 12.2 C 0 km/h
343 25-09-2010 20:34:02 11.8 C 5.79 g/m*3 11.8 C 0 km/h
344 25-09-2010 20:46:02 11.1 C 6.04 g/m*3 11.1 C 0 km/h
345 25-09-2010 20:58:02 10.9 C 6.17 g/m*3 10.9 C 0 km/h
346 25-09-2010 21:10:02 10.4 C 6.17 g/m*3 10.4 C 0 km/h
347 25-09-2010 21:22:03 10.2 C 6.28 g/m*3 10.2 C 0 km/h
348 25-09-2010 21:34:02 10.1 C 6.34 g/m*3 10.1 C 0 km/h
349 25-09-2010 21:46:03 10 C 6.3 g/m*3 10 C 0 km/h
350 25-09-2010 21:58:03 9.9 C 6.44 g/m*3 9.9 C 0 km/h
Sensor: Nr:Datum:Temp:Abs-Feuchte:Windchill:Wind:
Aussen-T/F 351 25-09-2010 22:10:02 9.9 C 6.54 g/m*3 9.9 C 0 km/h
352 25-09-2010 22:22:02 10.2 C 6.57 g/m*3 10.2 C 0 km/h
353 25-09-2010 22:34:02 10.5 C 6.69 g/m*3 10.5 C 0 km/h
354 25-09-2010 22:46:02 10.5 C 6.69 g/m*3 10.5 C 0 km/h
355 25-09-2010 22:58:02 10.3 C 6.9 g/m*3 10.3 C 0 km/h
356 25-09-2010 23:10:02 9.6 C 7.15 g/m*3 9.6 C 0 km/h
357 25-09-2010 23:22:02 9.3 C 7.28 g/m*3 9.3 C 0 km/h
358 25-09-2010 23:34:01 9.2 C 7.5 g/m*3 9.2 C 0 km/h
359 25-09-2010 23:46:02 9.1 C 7.45 g/m*3 9.1 C 0 km/h
360 25-09-2010 23:58:02 9.2 C 7.59 g/m*3 9.2 C 0 km/h
361 26-09-2010 00:10:01 9.1 C 7.63 g/m*3 9.1 C 0 km/h
362 26-09-2010 00:22:02 9.5 C 7.92 g/m*3 9.5 C 0 km/h
363 26-09-2010 00:34:02 9.5 C 7.92 g/m*3 9.5 C 0 km/h
364 26-09-2010 00:46:02 9.6 C 7.79 g/m*3 9.6 C 0 km/h
365 26-09-2010 00:58:02 9.5 C 7.55 g/m*3 9.5 C 0 km/h
366 26-09-2010 01:10:02 9.5 C 7.37 g/m*3 9.5 C 0 km/h
367 26-09-2010 01:22:02 9.5 C 7.28 g/m*3 9.5 C 0 km/h
368 26-09-2010 01:34:02 9.4 C 7.15 g/m*3 9.4 C 0 km/h
369 26-09-2010 01:46:01 9.5 C 7.19 g/m*3 9.5 C 0 km/h
370 26-09-2010 01:58:01 9.5 C 7.19 g/m*3 9.5 C 0 km/h
371 26-09-2010 02:10:02 9.5 C 7.19 g/m*3 9.5 C 0 km/h
372 26-09-2010 02:22:01 9.5 C 7.1 g/m*3 9.5 C 0 km/h
373 26-09-2010 02:34:01 9.3 C 7.01 g/m*3 9.3 C 0 km/h
374 26-09-2010 02:46:01 9.4 C 6.96 g/m*3 9.4 C 0 km/h
375 26-09-2010 02:58:01 9.4 C 6.96 g/m*3 9.4 C 0 km/h
Sensor: Nr:Datum:Temp:Abs-Feuchte:Windchill:Wind:
Aussen-T/F 376 26-09-2010 03:10:01 9.3 C 6.92 g/m*3 9.3 C 0 km/h
377 26-09-2010 03:22:01 9.3 C 7.01 g/m*3 9.3 C 0 km/h
378 26-09-2010 03:34:01 9.3 C 7.1 g/m*3 9.3 C 0 km/h
379 26-09-2010 03:46:01 9.1 C 7.1 g/m*3 9.1 C 0 km/h
380 26-09-2010 03:58:01 9 C 7.23 g/m*3 9 C 0 km/h
381 26-09-2010 04:10:01 9 C 7.32 g/m*3 9 C 0 km/h
382 26-09-2010 04:22:01 9 C 7.23 g/m*3 9 C 0 km/h
383 26-09-2010 04:34:02 8.9 C 7.27 g/m*3 8.9 C 0 km/h
384 26-09-2010 04:46:01 8.7 C 7.26 g/m*3 8.7 C 0 km/h
385 26-09-2010 04:58:01 8.8 C 7.31 g/m*3 8.8 C 0 km/h
386 26-09-2010 05:10:02 9 C 7.32 g/m*3 9 C 0 km/h
387 26-09-2010 05:22:01 9.1 C 7.36 g/m*3 9.1 C 0 km/h
388 26-09-2010 05:34:01 9 C 7.32 g/m*3 9 C 0 km/h
389 26-09-2010 05:46:01 9 C 7.32 g/m*3 9 C 0 km/h
390 26-09-2010 05:58:01 9 C 7.32 g/m*3 9 C 0 km/h
391 26-09-2010 06:10:02 9 C 7.32 g/m*3 9 C 0 km/h
392 26-09-2010 06:22:01 9.1 C 7.36 g/m*3 9.1 C 0 km/h
393 26-09-2010 06:34:01 8.8 C 7.31 g/m*3 8.8 C 0 km/h
394 26-09-2010 06:46:01 8.8 C 7.4 g/m*3 8.8 C 0 km/h
395 26-09-2010 06:58:01 8.8 C 7.49 g/m*3 8.8 C 0 km/h
396 26-09-2010 07:10:01 8.8 C 7.49 g/m*3 8.8 C 0 km/h
397 26-09-2010 07:22:02 8.5 C 7.26 g/m*3 8.5 C 0 km/h
398 26-09-2010 07:34:01 8.6 C 7.39 g/m*3 8.6 C 0 km/h
399 26-09-2010 07:46:02 8.9 C 7.62 g/m*3 8.9 C 0 km/h
400 26-09-2010 07:58:02 9.2 C 7.5 g/m*3 9.2 C 0 km/h
Sensor: Nr:Datum:Temp:Abs-Feuchte:Windchill:Wind:
Aussen-T/F 401 26-09-2010 08:10:01 9.5 C 7.55 g/m*3 9.5 C 0 km/h
402 26-09-2010 08:22:02 9.6 C 7.33 g/m*3 9.6 C 0 km/h
403 26-09-2010 08:34:01 9.7 C 7.19 g/m*3 9.7 C 0 km/h
404 26-09-2010 08:46:02 9.7 C 7.19 g/m*3 9.7 C 0 km/h
405 26-09-2010 08:58:02 9.6 C 7.24 g/m*3 9.6 C 0 km/h
406 26-09-2010 09:10:01 9.4 C 7.24 g/m*3 9.4 C 0 km/h
407 26-09-2010 09:22:01 9.4 C 7.33 g/m*3 9.4 C 0 km/h
408 26-09-2010 09:34:02 10.5 C 7.57 g/m*3 10.5 C 0 km/h
409 26-09-2010 09:46:01 11 C 7.11 g/m*3 11 C 0 km/h
410 26-09-2010 09:58:01 11 C 6.61 g/m*3 11 C 0 km/h
411 26-09-2010 10:10:02 11 C 6.61 g/m*3 11 C 0 km/h
412 26-09-2010 10:22:01 11.6 C 6.76 g/m*3 11.6 C 0 km/h
413 26-09-2010 10:34:02 12 C 6.61 g/m*3 12 C 0 km/h
414 26-09-2010 10:46:01 11.9 C 6.78 g/m*3 11.9 C 0 km/h
415 26-09-2010 10:58:01 12.7 C 7.01 g/m*3 12.7 C 0 km/h
416 26-09-2010 11:10:02 12.9 C 6.42 g/m*3 12.9 C 0 km/h
417 26-09-2010 11:22:01 13.1 C 6.5 g/m*3 13.1 C 0 km/h
418 26-09-2010 11:34:02 13.2 C 6.66 g/m*3 13.2 C 0 km/h
419 26-09-2010 11:46:02 13.5 C 6.32 g/m*3 13.5 C 0 km/h
420 26-09-2010 11:58:02 13.4 C 6.28 g/m*3 13.4 C 0 km/h
421 26-09-2010 12:10:01 14 C 6.39 g/m*3 14 C 0 km/h
422 26-09-2010 12:22:02 14.3 C 6.51 g/m*3 14.3 C 0 km/h
423 26-09-2010 12:34:01 14.6 C 6.51 g/m*3 14.6 C 0 km/h
424 26-09-2010 12:46:01 15 C 6.28 g/m*3 15 C 0 km/h
425 26-09-2010 12:58:01 14.5 C 6.22 g/m*3 14.5 C 0 km/h
Sensor: Nr:Datum:Temp:Abs-Feuchte:Windchill:Wind:
Aussen-T/F 426 26-09-2010 13:10:02 14.5 C 6.34 g/m*3 14.5 C 0 km/h
427 26-09-2010 13:22:01 13.2 C 7.12 g/m*3 13.2 C 0 km/h
428 26-09-2010 13:34:01 12.6 C 7.63 g/m*3 12.6 C 0 km/h
429 26-09-2010 13:46:01 12.4 C 8.3 g/m*3 12.4 C 0 km/h
430 26-09-2010 13:58:01 12.3 C 8.25 g/m*3 12.3 C 0 km/h
431 26-09-2010 14:10:01 13.2 C 8.61 g/m*3 13.2 C 0 km/h
432 26-09-2010 14:22:01 13.4 C 8.37 g/m*3 13.4 C 0 km/h
433 26-09-2010 14:34:01 13.3 C 8.43 g/m*3 13.3 C 0 km/h
434 26-09-2010 14:46:01 13.2 C 8.15 g/m*3 13.2 C 0 km/h
435 26-09-2010 14:58:01 13.4 C 7.9 g/m*3 13.4 C 0 km/h
436 26-09-2010 15:10:01 13.6 C 7.89 g/m*3 13.6 C 0 km/h
437 26-09-2010 15:22:02 13.9 C 8.39 g/m*3 13.9 C 0 km/h
438 26-09-2010 15:34:01 14.4 C 8.16 g/m*3 14.4 C 0 km/h
439 26-09-2010 15:46:02 14.5 C 7.96 g/m*3 14.5 C 0 km/h
440 26-09-2010 15:58:02 14.5 C 8.21 g/m*3 14.5 C 0 km/h
441 26-09-2010 16:10:01 13.7 C 7.7 g/m*3 13.7 C 0 km/h
442 26-09-2010 16:22:02 13.8 C 7.51 g/m*3 13.8 C 0 km/h
443 26-09-2010 16:34:01 15.7 C 7.09 g/m*3 15.7 C 0 km/h
444 26-09-2010 16:46:01 15.5 C 6.21 g/m*3 15.5 C 0 km/h
445 26-09-2010 16:58:01 15.9 C 6.5 g/m*3 15.9 C 0 km/h
446 26-09-2010 17:10:01 16.1 C 6.44 g/m*3 16.1 C 0 km/h
447 26-09-2010 17:22:01 15.6 C 6.38 g/m*3 15.6 C 0 km/h
448 26-09-2010 17:34:02 15.4 C 6.7 g/m*3 15.4 C 0 km/h
449 26-09-2010 17:46:01 14.6 C 6.76 g/m*3 14.6 C 0 km/h
450 26-09-2010 17:58:01 14.2 C 6.72 g/m*3 14.2 C 0 km/h
Sensor: Nr:Datum:Temp:Abs-Feuchte:Windchill:Wind:
Aussen-T/F 451 26-09-2010 18:10:02 13.6 C 6.83 g/m*3 13.6 C 0 km/h
452 26-09-2010 18:22:01 13.1 C 6.85 g/m*3 13.1 C 0 km/h
453 26-09-2010 18:34:01 12.9 C 6.99 g/m*3 12.9 C 0 km/h
454 26-09-2010 18:46:01 12.7 C 7.01 g/m*3 12.7 C 0 km/h
455 26-09-2010 18:58:01 12.5 C 7.04 g/m*3 12.5 C 0 km/h
456 26-09-2010 19:10:02 12.4 C 7.1 g/m*3 12.4 C 0 km/h
457 26-09-2010 19:22:01 12.4 C 7.1 g/m*3 12.4 C 0 km/h
458 26-09-2010 19:34:01 12.2 C 7.01 g/m*3 12.2 C 0 km/h
459 26-09-2010 19:46:01 12.1 C 7.18 g/m*3 12.1 C 0 km/h
460 26-09-2010 19:58:01 12.1 C 7.08 g/m*3 12.1 C 0 km/h
461 26-09-2010 20:10:02 12 C 7.25 g/m*3 12 C 0 km/h
462 26-09-2010 20:22:01 11.9 C 7.31 g/m*3 11.9 C 0 km/h
463 26-09-2010 20:34:01 11.7 C 7.22 g/m*3 11.7 C 0 km/h
464 26-09-2010 20:46:01 11.7 C 7.22 g/m*3 11.7 C 0 km/h
465 26-09-2010 20:58:01 11.6 C 7.07 g/m*3 11.6 C 0 km/h
466 26-09-2010 21:10:01 11.6 C 7.07 g/m*3 11.6 C 0 km/h
467 26-09-2010 21:22:01 11.4 C 7.08 g/m*3 11.4 C 0 km/h
468 26-09-2010 21:34:01 11.2 C 7.1 g/m*3 11.2 C 0 km/h
469 26-09-2010 21:46:01 10.9 C 7.16 g/m*3 10.9 C 0 km/h
470 26-09-2010 21:58:01 10.7 C 7.17 g/m*3 10.7 C 0 km/h
471 26-09-2010 22:10:01 10.3 C 6.99 g/m*3 10.3 C 0 km/h
472 26-09-2010 22:22:01 10 C 7.05 g/m*3 10 C 0 km/h
473 26-09-2010 22:34:01 9.7 C 7.1 g/m*3 9.7 C 0 km/h
474 26-09-2010 22:47:04 9.3 C 7.1 g/m*3 9.3 C 0 km/h
475 26-09-2010 22:59:04 9.2 C 7.05 g/m*3 9.2 C 0 km/h
Sensor: Nr:Datum:Temp:Abs-Feuchte:Windchill:Wind:
Aussen-T/F 476 26-09-2010 23:11:04 9 C 7.05 g/m*3 9 C 0 km/h
477 26-09-2010 23:23:04 8.9 C 7.18 g/m*3 8.9 C 0 km/h
478 26-09-2010 23:35:04 8.9 C 7.27 g/m*3 8.9 C 0 km/h
479 26-09-2010 23:47:04 8.8 C 7.22 g/m*3 8.8 C 0 km/h
480 26-09-2010 23:59:04 8.6 C 7.13 g/m*3 8.6 C 0 km/h
481 27-09-2010 00:11:04 8.5 C 7.17 g/m*3 8.5 C 0 km/h
482 27-09-2010 00:23:04 8.2 C 7.03 g/m*3 8.2 C 0 km/h
483 27-09-2010 00:35:04 8.1 C 6.99 g/m*3 8.1 C 0 km/h
484 27-09-2010 00:47:04 7.9 C 6.98 g/m*3 7.9 C 0 km/h
485 27-09-2010 00:59:04 7.9 C 7.15 g/m*3 7.9 C 0 km/h
486 27-09-2010 01:11:04 7.8 C 7.18 g/m*3 7.8 C 0 km/h
487 27-09-2010 01:23:04 7.6 C 7.09 g/m*3 7.6 C 0 km/h
488 27-09-2010 01:35:04 7.5 C 7.04 g/m*3 7.5 C 0 km/h
489 27-09-2010 01:47:04 7.3 C 6.95 g/m*3 7.3 C 0 km/h
490 27-09-2010 01:59:04 7.1 C 6.94 g/m*3 7.1 C 0 km/h
491 27-09-2010 02:11:04 7 C 6.9 g/m*3 7 C 0 km/h
492 27-09-2010 02:23:04 7 C 6.9 g/m*3 7 C 0 km/h
493 27-09-2010 02:35:05 6.8 C 6.81 g/m*3 6.8 C 0 km/h
494 27-09-2010 02:47:05 6.7 C 6.84 g/m*3 6.7 C 0 km/h
495 27-09-2010 02:59:05 6.7 C 6.84 g/m*3 6.7 C 0 km/h
496 27-09-2010 03:11:05 6.5 C 6.75 g/m*3 6.5 C 0 km/h
497 27-09-2010 03:23:05 6.7 C 6.84 g/m*3 6.7 C 0 km/h
498 27-09-2010 03:35:05 6.4 C 6.71 g/m*3 6.4 C 0 km/h
499 27-09-2010 03:47:05 6.3 C 6.66 g/m*3 6.3 C 0 km/h
500 27-09-2010 03:59:05 6.4 C 6.78 g/m*3 6.4 C 0 km/h
Sensor: Nr:Datum:Temp:Abs-Feuchte:Windchill:Wind:
Aussen-T/F 501 27-09-2010 04:11:05 6.5 C 6.9 g/m*3 6.5 C 0 km/h
502 27-09-2010 04:23:05 6.4 C 6.85 g/m*3 6.4 C 0 km/h
503 27-09-2010 04:35:05 6.3 C 6.81 g/m*3 6.3 C 0 km/h
504 27-09-2010 04:47:05 6.1 C 6.72 g/m*3 6.1 C 0 km/h
505 27-09-2010 04:59:05 5.9 C 6.71 g/m*3 5.9 C 0 km/h
506 27-09-2010 05:11:05 5.9 C 6.71 g/m*3 5.9 C 0 km/h
507 27-09-2010 05:23:05 6.1 C 6.72 g/m*3 6.1 C 0 km/h
508 27-09-2010 05:35:05 6.3 C 6.81 g/m*3 6.3 C 0 km/h
509 27-09-2010 05:47:05 6.4 C 6.93 g/m*3 6.4 C 0 km/h
510 27-09-2010 05:59:05 6.5 C 6.97 g/m*3 6.5 C 0 km/h
511 27-09-2010 06:11:05 6.5 C 6.97 g/m*3 6.5 C 0 km/h
512 27-09-2010 06:23:05 6.4 C 6.93 g/m*3 6.4 C 0 km/h
513 27-09-2010 06:35:05 6.2 C 6.84 g/m*3 6.2 C 0 km/h
514 27-09-2010 06:47:06 6.2 C 6.84 g/m*3 6.2 C 0 km/h
515 27-09-2010 06:59:06 6.3 C 6.88 g/m*3 6.3 C 0 km/h
516 27-09-2010 07:11:04 6.3 C 6.88 g/m*3 6.3 C 0 km/h
517 27-09-2010 07:23:04 6.6 C 7.02 g/m*3 6.6 C 0 km/h
518 27-09-2010 07:35:04 6.7 C 7.14 g/m*3 6.7 C 0 km/h
519 27-09-2010 07:47:02 6.9 C 7.24 g/m*3 6.9 C 0 km/h
520 27-09-2010 07:59:02 7.2 C 7.38 g/m*3 7.2 C 0 km/h
521 27-09-2010 08:11:02 7.5 C 7.52 g/m*3 7.5 C 0 km/h
522 27-09-2010 08:23:02 7.5 C 7.52 g/m*3 7.5 C 0 km/h
523 27-09-2010 08:35:02 7.6 C 7.57 g/m*3 7.6 C 0 km/h
524 27-09-2010 08:47:02 7.8 C 7.67 g/m*3 7.8 C 0 km/h
525 27-09-2010 08:59:02 8.1 C 7.74 g/m*3 8.1 C 0 km/h
Sensor: Nr:Datum:Temp:Abs-Feuchte:Windchill:Wind:
Aussen-T/F 526 27-09-2010 09:11:02 8.5 C 7.94 g/m*3 8.5 C 0 km/h
527 27-09-2010 09:23:02 8.8 C 8.09 g/m*3 8.8 C 0 km/h
528 27-09-2010 09:35:02 9.2 C 8.22 g/m*3 9.2 C 0 km/h
529 27-09-2010 09:47:01 9.6 C 8.34 g/m*3 9.6 C 0 km/h
530 27-09-2010 09:59:01 10.1 C 8.42 g/m*3 10.1 C 0 km/h
531 27-09-2010 10:11:02 10.4 C 8.29 g/m*3 10.4 C 0 km/h
532 27-09-2010 10:23:01 10.4 C 7.9 g/m*3 10.4 C 0 km/h
533 27-09-2010 10:35:02 10.8 C 7.51 g/m*3 10.8 C 0 km/h
534 27-09-2010 10:47:01 11 C 7.11 g/m*3 11 C 0 km/h
535 27-09-2010 10:59:01 11.2 C 6.99 g/m*3 11.2 C 0 km/h
536 27-09-2010 11:11:02 11.7 C 7.01 g/m*3 11.7 C 0 km/h
537 27-09-2010 11:23:01 11.8 C 6.74 g/m*3 11.8 C 0 km/h
538 27-09-2010 11:35:02 12.2 C 6.8 g/m*3 12.2 C 0 km/h
539 27-09-2010 11:47:01 12 C 6.61 g/m*3 12 C 0 km/h
540 27-09-2010 11:59:01 12.2 C 6.8 g/m*3 12.2 C 0 km/h
541 27-09-2010 12:11:02 12.4 C 6.77 g/m*3 12.4 C 0 km/h
542 27-09-2010 12:23:01 12.8 C 6.94 g/m*3 12.8 C 0 km/h
543 27-09-2010 12:35:02 12.8 C 6.83 g/m*3 12.8 C 0 km/h
544 27-09-2010 12:47:01 13 C 6.8 g/m*3 13 C 0 km/h
545 27-09-2010 12:59:01 12.9 C 6.76 g/m*3 12.9 C 0 km/h
546 27-09-2010 13:11:02 13.1 C 6.73 g/m*3 13.1 C 0 km/h
547 27-09-2010 13:23:02 13.4 C 6.97 g/m*3 13.4 C 0 km/h
548 27-09-2010 13:35:01 13.6 C 6.71 g/m*3 13.6 C 0 km/h
549 27-09-2010 13:47:02 13.6 C 6.71 g/m*3 13.6 C 0 km/h
550 27-09-2010 13:59:02 13.7 C 6.51 g/m*3 13.7 C 0 km/h
Sensor: Nr:Datum:Temp:Abs-Feuchte:Windchill:Wind:
Aussen-T/F 551 27-09-2010 14:11:01 13.4 C 6.51 g/m*3 13.4 C 0 km/h
552 27-09-2010 14:23:02 13.3 C 6.7 g/m*3 13.3 C 0 km/h
553 27-09-2010 14:35:01 13.4 C 6.74 g/m*3 13.4 C 0 km/h
554 27-09-2010 14:47:03 13.2 C 6.77 g/m*3 13.2 C 0 km/h
555 27-09-2010 14:59:03 13 C 6.58 g/m*3 13 C 0 km/h
556 27-09-2010 15:11:02 13.4 C 6.74 g/m*3 13.4 C 0 km/h
557 27-09-2010 15:23:02 13.6 C 6.59 g/m*3 13.6 C 0 km/h
558 27-09-2010 15:35:02 13.6 C 6.47 g/m*3 13.6 C 0 km/h
559 27-09-2010 15:47:02 13.2 C 6.66 g/m*3 13.2 C 0 km/h
560 27-09-2010 15:59:02 13.2 C 6.77 g/m*3 13.2 C 0 km/h
561 27-09-2010 16:11:01 13.4 C 6.97 g/m*3 13.4 C 0 km/h
562 27-09-2010 16:23:02 13.4 C 7.44 g/m*3 13.4 C 0 km/h
563 27-09-2010 16:35:02 13.4 C 7.44 g/m*3 13.4 C 0 km/h
564 27-09-2010 16:47:01 13.3 C 7.05 g/m*3 13.3 C 0 km/h
565 27-09-2010 16:59:01 13.4 C 7.09 g/m*3 13.4 C 0 km/h
566 27-09-2010 17:11:01 13.2 C 7.58 g/m*3 13.2 C 0 km/h
567 27-09-2010 17:23:01 13 C 7.6 g/m*3 13 C 0 km/h
568 27-09-2010 17:35:02 12.8 C 7.73 g/m*3 12.8 C 0 km/h
569 27-09-2010 17:47:02 12.8 C 7.84 g/m*3 12.8 C 0 km/h
570 27-09-2010 17:59:02 12.7 C 7.68 g/m*3 12.7 C 0 km/h
571 27-09-2010 18:11:02 12.5 C 7.59 g/m*3 12.5 C 0 km/h
572 27-09-2010 18:23:01 12.3 C 7.71 g/m*3 12.3 C 0 km/h
573 27-09-2010 18:35:02 11.9 C 7.73 g/m*3 11.9 C 0 km/h
574 27-09-2010 18:47:02 11.7 C 7.74 g/m*3 11.7 C 0 km/h
575 27-09-2010 18:59:02 11.3 C 7.85 g/m*3 11.3 C 0 km/h
Sensor: Nr:Datum:Temp:Abs-Feuchte:Windchill:Wind:
Aussen-T/F 576 27-09-2010 19:11:02 10.8 C 8.01 g/m*3 10.8 C 0 km/h
577 27-09-2010 19:23:02 10.7 C 8.15 g/m*3 10.7 C 0 km/h
578 27-09-2010 19:35:02 10.5 C 8.15 g/m*3 10.5 C 0 km/h
579 27-09-2010 19:47:02 10.5 C 8.15 g/m*3 10.5 C 0 km/h
580 27-09-2010 19:59:02 10.4 C 8.19 g/m*3 10.4 C 0 km/h
581 27-09-2010 20:11:02 10.3 C 8.24 g/m*3 10.3 C 0 km/h
582 27-09-2010 20:23:02 10.3 C 8.33 g/m*3 10.3 C 0 km/h
583 27-09-2010 20:35:02 10.3 C 8.43 g/m*3 10.3 C 0 km/h
584 27-09-2010 20:47:01 10.3 C 8.43 g/m*3 10.3 C 0 km/h
585 27-09-2010 20:59:01 10.3 C 8.52 g/m*3 10.3 C 0 km/h
586 27-09-2010 21:11:02 10.4 C 8.58 g/m*3 10.4 C 0 km/h
587 27-09-2010 21:23:01 10.2 C 8.47 g/m*3 10.2 C 0 km/h
588 27-09-2010 21:35:02 10.3 C 8.52 g/m*3 10.3 C 0 km/h
589 27-09-2010 21:47:02 10.4 C 8.58 g/m*3 10.4 C 0 km/h
590 27-09-2010 21:59:03 10.4 C 8.58 g/m*3 10.4 C 0 km/h
591 27-09-2010 22:11:02 10.4 C 8.58 g/m*3 10.4 C 0 km/h
592 27-09-2010 22:24:10 10.4 C 8.67 g/m*3 10.4 C 0 km/h
593 27-09-2010 22:36:10 10.2 C 8.56 g/m*3 10.2 C 0 km/h
594 27-09-2010 22:48:10 10.2 C 8.56 g/m*3 10.2 C 0 km/h
595 27-09-2010 23:00:10 10.2 C 8.56 g/m*3 10.2 C 0 km/h
596 27-09-2010 23:12:10 10.2 C 8.66 g/m*3 10.2 C 0 km/h
597 27-09-2010 23:24:10 10.2 C 8.66 g/m*3 10.2 C 0 km/h
598 27-09-2010 23:36:10 10.1 C 8.61 g/m*3 10.1 C 0 km/h
599 27-09-2010 23:48:10 10.1 C 8.7 g/m*3 10.1 C 0 km/h
600 28-09-2010 00:00:10 10.1 C 8.7 g/m*3 10.1 C 0 km/h
Sensor: Nr:Datum:Temp:Abs-Feuchte:Windchill:Wind:
Aussen-T/F 601 28-09-2010 00:12:10 10 C 8.64 g/m*3 10 C 0 km/h
602 28-09-2010 00:24:10 10 C 8.64 g/m*3 10 C 0 km/h
603 28-09-2010 00:36:10 10 C 8.64 g/m*3 10 C 0 km/h
604 28-09-2010 00:48:10 9.9 C 8.78 g/m*3 9.9 C 0 km/h
605 28-09-2010 01:00:10 10 C 8.74 g/m*3 10 C 0 km/h
606 28-09-2010 01:12:11 10 C 8.74 g/m*3 10 C 0 km/h
607 28-09-2010 01:24:11 10 C 8.74 g/m*3 10 C 0 km/h
608 28-09-2010 01:36:11 10 C 8.74 g/m*3 10 C 0 km/h
609 28-09-2010 01:48:11 9.9 C 8.78 g/m*3 9.9 C 0 km/h
610 28-09-2010 02:00:11 9.9 C 8.78 g/m*3 9.9 C 0 km/h
611 28-09-2010 02:12:11 9.9 C 8.78 g/m*3 9.9 C 0 km/h
612 28-09-2010 02:24:11 9.9 C 8.78 g/m*3 9.9 C 0 km/h
613 28-09-2010 02:36:11 9.9 C 8.78 g/m*3 9.9 C 0 km/h
614 28-09-2010 02:48:11 9.9 C 8.78 g/m*3 9.9 C 0 km/h
615 28-09-2010 03:00:11 9.9 C 8.87 g/m*3 9.9 C 0 km/h
616 28-09-2010 03:12:11 9.9 C 8.87 g/m*3 9.9 C 0 km/h
617 28-09-2010 03:24:11 9.9 C 8.87 g/m*3 9.9 C 0 km/h
618 28-09-2010 03:36:12 9.9 C 8.87 g/m*3 9.9 C 0 km/h
619 28-09-2010 03:48:12 9.9 C 8.87 g/m*3 9.9 C 0 km/h
620 28-09-2010 04:00:12 9.9 C 8.87 g/m*3 9.9 C 0 km/h
621 28-09-2010 04:12:12 9.9 C 8.87 g/m*3 9.9 C 0 km/h
622 28-09-2010 04:24:12 9.9 C 8.87 g/m*3 9.9 C 0 km/h
623 28-09-2010 04:36:12 9.9 C 8.87 g/m*3 9.9 C 0 km/h
624 28-09-2010 04:48:12 10 C 8.83 g/m*3 10 C 0 km/h
625 28-09-2010 05:00:12 10 C 8.93 g/m*3 10 C 0 km/h
Sensor: Nr:Datum:Temp:Abs-Feuchte:Windchill:Wind:
Aussen-T/F 626 28-09-2010 05:12:12 10 C 8.93 g/m*3 10 C 0 km/h
627 28-09-2010 05:24:12 10 C 8.93 g/m*3 10 C 0 km/h
628 28-09-2010 05:36:12 10 C 8.93 g/m*3 10 C 0 km/h
629 28-09-2010 05:48:12 10 C 8.93 g/m*3 10 C 0 km/h
630 28-09-2010 06:00:12 10.1 C 8.98 g/m*3 10.1 C 0 km/h
631 28-09-2010 06:12:12 10.1 C 8.98 g/m*3 10.1 C 0 km/h
632 28-09-2010 06:24:12 10.1 C 8.98 g/m*3 10.1 C 0 km/h
633 28-09-2010 06:36:12 10.1 C 8.98 g/m*3 10.1 C 0 km/h
634 28-09-2010 06:48:12 10 C 8.93 g/m*3 10 C 0 km/h
635 28-09-2010 07:00:12 10 C 8.93 g/m*3 10 C 0 km/h
636 28-09-2010 07:12:12 10 C 8.93 g/m*3 10 C 0 km/h
637 28-09-2010 07:24:12 10 C 8.93 g/m*3 10 C 0 km/h
638 28-09-2010 07:36:13 10 C 8.93 g/m*3 10 C 0 km/h
639 28-09-2010 07:48:01 10 C 8.93 g/m*3 10 C 0 km/h
640 28-09-2010 08:00:01 10 C 8.93 g/m*3 10 C 0 km/h
641 28-09-2010 08:12:02 10 C 8.93 g/m*3 10 C 0 km/h
642 28-09-2010 08:24:02 10 C 8.93 g/m*3 10 C 0 km/h
643 28-09-2010 08:36:02 10.1 C 8.98 g/m*3 10.1 C 0 km/h
644 28-09-2010 08:48:03 10.1 C 8.98 g/m*3 10.1 C 0 km/h
645 28-09-2010 09:00:03 10.1 C 8.98 g/m*3 10.1 C 0 km/h
646 28-09-2010 09:12:03 10.2 C 9.04 g/m*3 10.2 C 0 km/h
647 28-09-2010 09:24:02 10.2 C 9.04 g/m*3 10.2 C 0 km/h
648 28-09-2010 09:36:02 10.3 C 9.1 g/m*3 10.3 C 0 km/h
649 28-09-2010 09:48:02 10.4 C 9.16 g/m*3 10.4 C 0 km/h
650 28-09-2010 10:00:02 10.4 C 9.16 g/m*3 10.4 C 0 km/h
Sensor: Nr:Datum:Temp:Abs-Feuchte:Windchill:Wind:
Aussen-T/F 651 28-09-2010 10:12:02 10.5 C 9.21 g/m*3 10.5 C 0 km/h
652 28-09-2010 10:24:01 10.5 C 9.21 g/m*3 10.5 C 0 km/h
653 28-09-2010 10:36:02 10.7 C 9.33 g/m*3 10.7 C 0 km/h
654 28-09-2010 10:48:02 10.8 C 9.39 g/m*3 10.8 C 0 km/h
655 28-09-2010 11:00:02 11 C 9.51 g/m*3 11 C 0 km/h
656 28-09-2010 11:12:02 11 C 9.51 g/m*3 11 C 0 km/h
657 28-09-2010 11:24:02 11.2 C 9.63 g/m*3 11.2 C 0 km/h
658 28-09-2010 11:36:02 11.3 C 9.69 g/m*3 11.3 C 0 km/h
659 28-09-2010 11:48:02 11.4 C 9.75 g/m*3 11.4 C 0 km/h
660 28-09-2010 12:00:02 11.4 C 9.75 g/m*3 11.4 C 0 km/h
661 28-09-2010 12:12:02 11.4 C 9.65 g/m*3 11.4 C 0 km/h
662 28-09-2010 12:24:02 11.4 C 9.65 g/m*3 11.4 C 0 km/h
663 28-09-2010 12:36:02 11.5 C 9.71 g/m*3 11.5 C 0 km/h
664 28-09-2010 12:48:02 11.7 C 9.83 g/m*3 11.7 C 0 km/h
665 28-09-2010 13:00:02 11.6 C 9.67 g/m*3 11.6 C 0 km/h
666 28-09-2010 13:12:02 11.6 C 9.67 g/m*3 11.6 C 0 km/h
667 28-09-2010 13:24:03 11.8 C 9.79 g/m*3 11.8 C 0 km/h
668 28-09-2010 13:36:02 11.8 C 9.68 g/m*3 11.8 C 0 km/h
669 28-09-2010 13:48:03 11.9 C 9.74 g/m*3 11.9 C 0 km/h
670 28-09-2010 14:00:03 11.9 C 9.74 g/m*3 11.9 C 0 km/h
671 28-09-2010 14:12:02 11.8 C 9.68 g/m*3 11.8 C 0 km/h
672 28-09-2010 14:24:02 11.7 C 9.62 g/m*3 11.7 C 0 km/h
673 28-09-2010 14:36:02 11.7 C 9.62 g/m*3 11.7 C 0 km/h
674 28-09-2010 14:48:02 11.7 C 9.62 g/m*3 11.7 C 0 km/h
675 28-09-2010 15:00:02 11.7 C 9.62 g/m*3 11.7 C 0 km/h
Sensor: Nr:Datum:Temp:Abs-Feuchte:Windchill:Wind:
Aussen-T/F 676 28-09-2010 15:12:02 11.7 C 9.73 g/m*3 11.7 C 0 km/h
677 28-09-2010 15:24:02 11.7 C 9.73 g/m*3 11.7 C 0 km/h
678 28-09-2010 15:36:02 11.8 C 9.79 g/m*3 11.8 C 0 km/h
679 28-09-2010 15:48:02 11.8 C 9.79 g/m*3 11.8 C 0 km/h
680 28-09-2010 16:00:02 11.8 C 9.79 g/m*3 11.8 C 0 km/h
681 28-09-2010 16:12:01 11.8 C 9.79 g/m*3 11.8 C 0 km/h
682 28-09-2010 16:24:01 11.8 C 9.79 g/m*3 11.8 C 0 km/h
683 28-09-2010 16:36:02 11.9 C 9.96 g/m*3 11.9 C 0 km/h
684 28-09-2010 16:48:02 11.9 C 9.96 g/m*3 11.9 C 0 km/h
685 28-09-2010 17:00:02 11.9 C 9.96 g/m*3 11.9 C 0 km/h
686 28-09-2010 17:12:02 12 C 10.02 g/m*3 12 C 0 km/h
687 28-09-2010 17:24:02 12 C 10.02 g/m*3 12 C 0 km/h
688 28-09-2010 17:36:02 12 C 10.02 g/m*3 12 C 0 km/h
689 28-09-2010 17:48:02 12 C 10.02 g/m*3 12 C 0 km/h
690 28-09-2010 18:00:02 11.9 C 9.96 g/m*3 11.9 C 0 km/h
691 28-09-2010 18:12:02 11.9 C 9.96 g/m*3 11.9 C 0 km/h
692 28-09-2010 18:24:02 11.9 C 10.06 g/m*3 11.9 C 0 km/h
693 28-09-2010 18:36:02 11.8 C 10 g/m*3 11.8 C 0 km/h
694 28-09-2010 18:48:01 11.8 C 10 g/m*3 11.8 C 0 km/h
695 28-09-2010 19:00:01 11.8 C 10 g/m*3 11.8 C 0 km/h
696 28-09-2010 19:12:02 11.7 C 9.94 g/m*3 11.7 C 0 km/h
697 28-09-2010 19:24:01 11.7 C 9.94 g/m*3 11.7 C 0 km/h
698 28-09-2010 19:36:01 11.7 C 9.94 g/m*3 11.7 C 0 km/h
699 28-09-2010 19:48:01 11.7 C 9.94 g/m*3 11.7 C 0 km/h
700 28-09-2010 20:00:01 11.6 C 9.87 g/m*3 11.6 C 0 km/h
Sensor: Nr:Datum:Temp:Abs-Feuchte:Windchill:Wind:
Aussen-T/F 701 28-09-2010 20:12:02 11.6 C 9.87 g/m*3 11.6 C 0 km/h
702 28-09-2010 20:24:02 11.6 C 9.87 g/m*3 11.6 C 0 km/h
703 28-09-2010 20:36:01 11.6 C 9.87 g/m*3 11.6 C 0 km/h
704 28-09-2010 20:48:01 11.6 C 9.87 g/m*3 11.6 C 0 km/h
705 28-09-2010 21:00:01 11.6 C 9.87 g/m*3 11.6 C 0 km/h
706 28-09-2010 21:12:01 11.6 C 9.87 g/m*3 11.6 C 0 km/h
707 28-09-2010 21:24:02 11.6 C 9.87 g/m*3 11.6 C 0 km/h
708 28-09-2010 21:36:01 11.5 C 9.81 g/m*3 11.5 C 0 km/h
709 28-09-2010 21:48:03 11.6 C 9.87 g/m*3 11.6 C 0 km/h
710 28-09-2010 22:00:03 11.6 C 9.87 g/m*3 11.6 C 0 km/h
711 28-09-2010 22:12:02 11.6 C 9.87 g/m*3 11.6 C 0 km/h
712 28-09-2010 22:24:03 11.6 C 9.87 g/m*3 11.6 C 0 km/h
713 28-09-2010 22:36:02 11.7 C 9.94 g/m*3 11.7 C 0 km/h
714 28-09-2010 22:48:03 11.6 C 9.87 g/m*3 11.6 C 0 km/h
715 28-09-2010 23:00:03 11.6 C 9.87 g/m*3 11.6 C 0 km/h
716 28-09-2010 23:12:02 11.6 C 9.87 g/m*3 11.6 C 0 km/h
717 28-09-2010 23:24:02 11.6 C 9.87 g/m*3 11.6 C 0 km/h
718 28-09-2010 23:36:02 11.6 C 9.87 g/m*3 11.6 C 0 km/h
719 28-09-2010 23:48:02 11.6 C 9.87 g/m*3 11.6 C 0 km/h
720 29-09-2010 00:00:02 11.6 C 9.87 g/m*3 11.6 C 0 km/h
721 29-09-2010 00:12:02 11.7 C 9.94 g/m*3 11.7 C 0 km/h
722 29-09-2010 00:24:02 11.6 C 9.87 g/m*3 11.6 C 0 km/h
723 29-09-2010 00:36:02 11.7 C 9.94 g/m*3 11.7 C 0 km/h
724 29-09-2010 00:48:02 11.6 C 9.87 g/m*3 11.6 C 0 km/h
725 29-09-2010 01:00:02 11.7 C 9.94 g/m*3 11.7 C 0 km/h
Sensor: Nr:Datum:Temp:Abs-Feuchte:Windchill:Wind:
Aussen-T/F 726 29-09-2010 01:12:03 11.6 C 9.87 g/m*3 11.6 C 0 km/h
727 29-09-2010 01:24:02 11.6 C 9.87 g/m*3 11.6 C 0 km/h
728 29-09-2010 01:36:02 11.6 C 9.87 g/m*3 11.6 C 0 km/h
729 29-09-2010 01:48:01 11.6 C 9.87 g/m*3 11.6 C 0 km/h
730 29-09-2010 02:00:01 11.6 C 9.87 g/m*3 11.6 C 0 km/h
731 29-09-2010 02:12:02 11.6 C 9.87 g/m*3 11.6 C 0 km/h
732 29-09-2010 02:24:01 11.5 C 9.81 g/m*3 11.5 C 0 km/h
733 29-09-2010 02:36:02 11.5 C 9.81 g/m*3 11.5 C 0 km/h
734 29-09-2010 02:48:01 11.6 C 9.87 g/m*3 11.6 C 0 km/h
735 29-09-2010 03:00:01 11.4 C 9.75 g/m*3 11.4 C 0 km/h
736 29-09-2010 03:12:01 11.3 C 9.69 g/m*3 11.3 C 0 km/h
737 29-09-2010 03:24:02 11.4 C 9.75 g/m*3 11.4 C 0 km/h
738 29-09-2010 03:36:01 11.7 C 9.94 g/m*3 11.7 C 0 km/h
739 29-09-2010 03:48:01 11.6 C 9.87 g/m*3 11.6 C 0 km/h
740 29-09-2010 04:00:01 11.6 C 9.87 g/m*3 11.6 C 0 km/h
741 29-09-2010 04:12:02 11.6 C 9.87 g/m*3 11.6 C 0 km/h
742 29-09-2010 04:24:01 11.6 C 9.87 g/m*3 11.6 C 0 km/h
743 29-09-2010 04:36:01 11.3 C 9.69 g/m*3 11.3 C 0 km/h
744 29-09-2010 04:48:01 11.3 C 9.69 g/m*3 11.3 C 0 km/h
745 29-09-2010 05:00:01 11.4 C 9.75 g/m*3 11.4 C 0 km/h
746 29-09-2010 05:12:02 11.4 C 9.75 g/m*3 11.4 C 0 km/h
747 29-09-2010 05:24:01 11.4 C 9.75 g/m*3 11.4 C 0 km/h
748 29-09-2010 05:36:01 11.4 C 9.75 g/m*3 11.4 C 0 km/h
749 29-09-2010 05:48:01 11.4 C 9.75 g/m*3 11.4 C 0 km/h
750 29-09-2010 06:00:01 11.7 C 9.94 g/m*3 11.7 C 0 km/h
Sensor: Nr:Datum:Temp:Abs-Feuchte:Windchill:Wind:
Aussen-T/F 751 29-09-2010 06:12:01 11.6 C 9.87 g/m*3 11.6 C 0 km/h
752 29-09-2010 06:24:02 11.5 C 9.81 g/m*3 11.5 C 0 km/h
753 29-09-2010 06:36:01 11.5 C 9.81 g/m*3 11.5 C 0 km/h
754 29-09-2010 06:48:02 11.3 C 9.69 g/m*3 11.3 C 0 km/h
755 29-09-2010 07:00:02 11.1 C 9.57 g/m*3 11.1 C 0 km/h
756 29-09-2010 07:12:01 10.8 C 9.39 g/m*3 10.8 C 0 km/h
757 29-09-2010 07:24:02 11 C 9.51 g/m*3 11 C 0 km/h
758 29-09-2010 07:36:01 11.2 C 9.63 g/m*3 11.2 C 0 km/h
759 29-09-2010 07:48:02 11.1 C 9.57 g/m*3 11.1 C 0 km/h
760 29-09-2010 08:00:02 11 C 9.51 g/m*3 11 C 0 km/h
761 29-09-2010 08:12:01 11.2 C 9.63 g/m*3 11.2 C 0 km/h
762 29-09-2010 08:24:01 11.2 C 9.63 g/m*3 11.2 C 0 km/h
763 29-09-2010 08:36:01 11.1 C 9.57 g/m*3 11.1 C 0 km/h
764 29-09-2010 08:48:02 11.4 C 9.75 g/m*3 11.4 C 0 km/h
765 29-09-2010 09:00:02 11.6 C 9.87 g/m*3 11.6 C 0 km/h
766 29-09-2010 09:12:01 11.2 C 9.53 g/m*3 11.2 C 0 km/h
767 29-09-2010 09:24:01 10.8 C 9.19 g/m*3 10.8 C 0 km/h
768 29-09-2010 09:36:02 11.7 C 9.62 g/m*3 11.7 C 0 km/h
769 29-09-2010 09:48:01 11.9 C 9.64 g/m*3 11.9 C 0 km/h
770 29-09-2010 10:00:01 12.1 C 9.22 g/m*3 12.1 C 0 km/h
771 29-09-2010 10:12:02 12.5 C 8.91 g/m*3 12.5 C 0 km/h
772 29-09-2010 10:24:01 12.9 C 8.79 g/m*3 12.9 C 0 km/h
773 29-09-2010 10:36:02 13.4 C 8.95 g/m*3 13.4 C 0 km/h
774 29-09-2010 10:48:01 13.7 C 9 g/m*3 13.7 C 0 km/h
775 29-09-2010 11:00:01 13.8 C 8.94 g/m*3 13.8 C 0 km/h
Sensor: Nr:Datum:Temp:Abs-Feuchte:Windchill:Wind:
Aussen-T/F 776 29-09-2010 11:12:02 13.7 C 8.53 g/m*3 13.7 C 0 km/h
777 29-09-2010 11:24:01 13.8 C 8.46 g/m*3 13.8 C 0 km/h
778 29-09-2010 11:36:01 14.1 C 8.01 g/m*3 14.1 C 0 km/h
779 29-09-2010 11:48:01 14.4 C 8.16 g/m*3 14.4 C 0 km/h
780 29-09-2010 12:00:01 14.5 C 8.21 g/m*3 14.5 C 0 km/h
781 29-09-2010 12:12:01 14.6 C 8.01 g/m*3 14.6 C 0 km/h
782 29-09-2010 12:24:01 14.1 C 7.52 g/m*3 14.1 C 0 km/h
783 29-09-2010 12:36:01 14 C 8.08 g/m*3 14 C 0 km/h
784 29-09-2010 12:48:01 14.8 C 8.36 g/m*3 14.8 C 0 km/h
785 29-09-2010 13:00:01 15.4 C 8.15 g/m*3 15.4 C 0 km/h
786 29-09-2010 13:12:01 15.7 C 7.89 g/m*3 15.7 C 0 km/h
787 29-09-2010 13:24:02 15.8 C 7.81 g/m*3 15.8 C 0 km/h
788 29-09-2010 13:36:01 15.9 C 7.99 g/m*3 15.9 C 0 km/h
789 29-09-2010 13:48:02 15.9 C 7.58 g/m*3 15.9 C 0 km/h
790 29-09-2010 14:00:02 16.3 C 7.35 g/m*3 16.3 C 0 km/h
791 29-09-2010 14:12:01 15.6 C 7.58 g/m*3 15.6 C 0 km/h
792 29-09-2010 14:24:02 15.8 C 7.94 g/m*3 15.8 C 0 km/h
793 29-09-2010 14:36:01 17.4 C 7.85 g/m*3 17.4 C 0 km/h
794 29-09-2010 14:48:02 19 C 7.33 g/m*3 19 C 0 km/h
795 29-09-2010 15:00:02 18.8 C 6.76 g/m*3 18.8 C 0 km/h
796 29-09-2010 15:12:01 18.8 C 6.93 g/m*3 18.8 C 0 km/h
797 29-09-2010 15:24:01 18.9 C 6.97 g/m*3 18.9 C 0 km/h
798 29-09-2010 15:36:02 19.6 C 6.92 g/m*3 19.6 C 0 km/h
799 29-09-2010 15:48:01 19.7 C 6.79 g/m*3 19.7 C 0 km/h
800 29-09-2010 16:00:02 18.8 C 7.41 g/m*3 18.8 C 0 km/h
Sensor: Nr:Datum:Temp:Abs-Feuchte:Windchill:Wind:
Aussen-T/F 801 29-09-2010 16:12:01 18.1 C 7.26 g/m*3 18.1 C 0 km/h
802 29-09-2010 16:24:01 18.1 C 7.57 g/m*3 18.1 C 0 km/h
803 29-09-2010 16:36:02 17.6 C 7.95 g/m*3 17.6 C 0 km/h
804 29-09-2010 16:48:01 18.1 C 7.88 g/m*3 18.1 C 0 km/h
805 29-09-2010 17:00:02 19 C 7.33 g/m*3 19 C 0 km/h
806 29-09-2010 17:12:01 19.4 C 7.01 g/m*3 19.4 C 0 km/h
807 29-09-2010 17:24:01 18.6 C 7.16 g/m*3 18.6 C 0 km/h
808 29-09-2010 17:36:02 17.6 C 7.95 g/m*3 17.6 C 0 km/h
809 29-09-2010 17:48:01 16.9 C 8.05 g/m*3 16.9 C 0 km/h
810 29-09-2010 18:00:01 15.9 C 7.58 g/m*3 15.9 C 0 km/h
811 29-09-2010 18:12:04 15.2 C 7.92 g/m*3 15.2 C 0 km/h
812 29-09-2010 18:24:02 14.4 C 7.91 g/m*3 14.4 C 0 km/h
813 29-09-2010 18:36:02 14 C 7.84 g/m*3 14 C 0 km/h
814 29-09-2010 18:48:01 13.6 C 7.89 g/m*3 13.6 C 0 km/h
815 29-09-2010 19:00:01 13.2 C 7.81 g/m*3 13.2 C 0 km/h
816 29-09-2010 19:12:01 13.1 C 7.76 g/m*3 13.1 C 0 km/h
817 29-09-2010 19:24:01 13 C 7.71 g/m*3 13 C 0 km/h
818 29-09-2010 19:36:02 13 C 7.6 g/m*3 13 C 0 km/h
819 29-09-2010 19:48:01 13.1 C 7.53 g/m*3 13.1 C 0 km/h
820 29-09-2010 20:00:01 13.3 C 7.63 g/m*3 13.3 C 0 km/h
821 29-09-2010 20:12:02 13.2 C 7.81 g/m*3 13.2 C 0 km/h
822 29-09-2010 20:24:01 13.2 C 7.81 g/m*3 13.2 C 0 km/h
823 29-09-2010 20:36:02 13 C 7.6 g/m*3 13 C 0 km/h
824 29-09-2010 20:48:01 12.9 C 7.66 g/m*3 12.9 C 0 km/h
825 29-09-2010 21:00:01 12.9 C 7.66 g/m*3 12.9 C 0 km/h
Sensor: Nr:Datum:Temp:Abs-Feuchte:Windchill:Wind:
Aussen-T/F 826 29-09-2010 21:12:02 12.8 C 7.84 g/m*3 12.8 C 0 km/h
827 29-09-2010 21:24:01 12.4 C 7.98 g/m*3 12.4 C 0 km/h
828 29-09-2010 21:38:05 12.2 C 8.09 g/m*3 12.2 C 0 km/h
829 29-09-2010 21:50:05 12.2 C 8.09 g/m*3 12.2 C 0 km/h
830 29-09-2010 22:02:05 12.3 C 8.25 g/m*3 12.3 C 0 km/h
831 29-09-2010 22:14:05 12.4 C 8.3 g/m*3 12.4 C 0 km/h
832 29-09-2010 22:26:05 12.4 C 8.41 g/m*3 12.4 C 0 km/h
833 29-09-2010 22:38:06 12.5 C 8.47 g/m*3 12.5 C 0 km/h
834 29-09-2010 22:50:06 12.3 C 8.36 g/m*3 12.3 C 0 km/h
835 29-09-2010 23:02:06 12 C 8.21 g/m*3 12 C 0 km/h
836 29-09-2010 23:14:06 11.8 C 8.31 g/m*3 11.8 C 0 km/h
837 29-09-2010 23:26:06 11.8 C 8.42 g/m*3 11.8 C 0 km/h
838 29-09-2010 23:38:06 12 C 8.31 g/m*3 12 C 0 km/h
839 29-09-2010 23:50:06 12.2 C 8.42 g/m*3 12.2 C 0 km/h

Legende:
   Min
   Max


Maximal/Minimal-Werte vom 23.09.2010 - 29.09.2010

Sensor Min Max Avg
Temp
(Aussen-T/F)
5.9 °C
27-09-2010  04:59:05
26 °C
23-09-2010  16:20:01
12.66 °C
Abs-Feuchte
(Aussen-T/F)
4.43 g/m*3
25-09-2010  15:10:02
12.52 g/m*3
23-09-2010  22:45:02
8.8 g/m*3
Windchill
(Aussen-T/F)
5.9 C
27-09-2010  04:59:05
26 C
23-09-2010  16:20:01
12.64 C

Die Daten stammen von einer Davis Vantage Pro 2 Wetter-Station und werden unter Linux mit der Software wview2wettercgi und aufbereitet. Alle Angaben erfolgen ohne Gewähr für ihre Vollständigkeit oder Richtigkeit.
Kontakt: Rainer Krienke krienke@uni-koblenz.de . Meine Webseiten an der Uni Koblenz oder privat.
Version: $Revision: 0.78 $